This is the latest recevied weather packets stored in our database for station/object KK7ISX. If no packets are shown the sender has not sent any weather packets the latest 10 day(s).
| Time | Temp. | Humidity | Pressure | Rain* | Wind** | Luminosity | Snow |
|---|---|---|---|---|---|---|---|
| 1777402370 | 15.56° C | 40% | 1020.5 hPa | 0 mm | - | 743 W/m² | - |
| 1777402069 | 15.56° C | 38% | 1020.5 hPa | 0 mm | - | 741 W/m² | - |
| 1777401764 | 15.56° C | 37% | 1020.5 hPa | 0 mm | - | 740 W/m² | - |
| 1777401459 | 15° C | 42% | 1020.4 hPa | 0 mm | - | 739 W/m² | - |
| 1777401155 | 16.67° C | 42% | 1020.4 hPa | 0 mm | - | 736 W/m² | - |
| 1777400852 | 15° C | 44% | 1020.5 hPa | 0 mm | - | 734 W/m² | - |
| 1777400548 | 13.89° C | 49% | 1020.5 hPa | 0 mm | - | 732 W/m² | - |
| 1777400245 | 15° C | 45% | 1020.7 hPa | 0 mm | - | 730 W/m² | - |
| 1777399941 | 13.89° C | 47% | 1020.9 hPa | 0 mm | - | 726 W/m² | - |
| 1777399638 | 13.89° C | 48% | 1020.7 hPa | 0 mm | - | 720 W/m² | - |
| 1777399335 | 13.89° C | 48% | 1020.5 hPa | 0 mm | - | 712 W/m² | - |
| 1777399033 | 14.44° C | 48% | 1021 hPa | 0 mm | - | 705 W/m² | - |
| 1777398730 | 13.89° C | 48% | 1020.7 hPa | 0 mm | - | 699 W/m² | - |
| 1777398427 | 12.78° C | 50% | 1020.8 hPa | 0 mm | - | 690 W/m² | - |
| 1777398124 | 13.33° C | 49% | 1020.8 hPa | 0 mm | - | 681 W/m² | - |
| 1777397820 | 12.78° C | 51% | 1020.8 hPa | 0 mm | - | 670 W/m² | - |
| 1777397516 | 13.33° C | 51% | 1020.9 hPa | 0 mm | - | 674 W/m² | - |
| 1777397212 | 13.33° C | 50% | 1021 hPa | 0 mm | - | 558 W/m² | - |
| 1777396909 | 12.78° C | 52% | 1021 hPa | 0 mm | - | 590 W/m² | - |
| 1777396605 | 12.78° C | 50% | 1020.8 hPa | 0 mm | - | 618 W/m² | - |
| 1777396302 | 12.22° C | 53% | 1020.8 hPa | 0 mm | - | 624 W/m² | - |
| 1777395999 | 12.78° C | 52% | 1021.2 hPa | 0 mm | - | 612 W/m² | - |
| 1777395699 | 12.78° C | 52% | 1021 hPa | 0 mm | - | 583 W/m² | - |
| 1777395395 | 12.22° C | 54% | 1020.8 hPa | 0 mm | - | 574 W/m² | - |
| 1777395093 | 12.22° C | 54% | 1020.9 hPa | 0 mm | - | 271 W/m² | - |
* Rain latest hour (hover to see other rain measurements)
** Current wind speed in m/s (hover to see current wind gust speed)